sensor_id;sensor_type;location;lat;lon;timestamp;pressure;altitude;pressure_sealevel;temperature;humidity
9889;BME280;4983;42.112;24.738;2022-07-29T00:01:58;99704.16;;;24.34;86.06
9889;BME280;4983;42.112;24.738;2022-07-29T00:04:25;99705.28;;;24.08;87.71
9889;BME280;4983;42.112;24.738;2022-07-29T00:06:52;99709.91;;;24.14;87.54
9889;BME280;4983;42.112;24.738;2022-07-29T00:09:19;99713.16;;;24.11;87.34
9889;BME280;4983;42.112;24.738;2022-07-29T00:11:47;99718.91;;;24.10;88.44
9889;BME280;4983;42.112;24.738;2022-07-29T00:14:14;99707.63;;;24.29;85.79
9889;BME280;4983;42.112;24.738;2022-07-29T00:16:41;99712.53;;;24.27;85.49
9889;BME280;4983;42.112;24.738;2022-07-29T00:19:08;99708.91;;;24.27;85.72
9889;BME280;4983;42.112;24.738;2022-07-29T00:21:35;99710.00;;;24.26;85.78
9889;BME280;4983;42.112;24.738;2022-07-29T00:24:02;99710.75;;;24.15;86.24
9889;BME280;4983;42.112;24.738;2022-07-29T00:26:29;99704.63;;;24.13;86.54
9889;BME280;4983;42.112;24.738;2022-07-29T00:28:59;99708.31;;;24.07;86.13
9889;BME280;4983;42.112;24.738;2022-07-29T00:31:26;99707.13;;;23.96;87.11
9889;BME280;4983;42.112;24.738;2022-07-29T00:33:53;99706.00;;;23.79;88.28
9889;BME280;4983;42.112;24.738;2022-07-29T00:36:20;99706.41;;;23.83;88.44
9889;BME280;4983;42.112;24.738;2022-07-29T00:38:46;99703.59;;;23.89;88.36
9889;BME280;4983;42.112;24.738;2022-07-29T00:41:13;99708.28;;;23.64;89.96
9889;BME280;4983;42.112;24.738;2022-07-29T00:43:40;99697.09;;;23.77;87.90
9889;BME280;4983;42.112;24.738;2022-07-29T00:46:08;99710.66;;;23.61;89.78
9889;BME280;4983;42.112;24.738;2022-07-29T00:48:36;99708.41;;;23.51;90.24
9889;BME280;4983;42.112;24.738;2022-07-29T00:51:05;99706.25;;;23.53;90.21
9889;BME280;4983;42.112;24.738;2022-07-29T00:53:33;99708.66;;;23.68;89.53
9889;BME280;4983;42.112;24.738;2022-07-29T00:56:02;99709.53;;;23.68;91.02
9889;BME280;4983;42.112;24.738;2022-07-29T00:58:29;99707.69;;;23.62;90.73
9889;BME280;4983;42.112;24.738;2022-07-29T01:00:57;99703.88;;;23.57;92.84
9889;BME280;4983;42.112;24.738;2022-07-29T01:03:26;99704.31;;;23.78;90.68
9889;BME280;4983;42.112;24.738;2022-07-29T01:05:53;99708.50;;;23.63;91.53
9889;BME280;4983;42.112;24.738;2022-07-29T01:08:21;99706.25;;;23.78;90.83
9889;BME280;4983;42.112;24.738;2022-07-29T01:10:50;99710.06;;;23.59;91.38
9889;BME280;4983;42.112;24.738;2022-07-29T01:13:18;99706.81;;;23.62;91.49
9889;BME280;4983;42.112;24.738;2022-07-29T01:15:49;99705.38;;;23.77;91.01
9889;BME280;4983;42.112;24.738;2022-07-29T01:18:21;99707.47;;;23.82;90.97
9889;BME280;4983;42.112;24.738;2022-07-29T01:21:04;99714.38;;;23.97;89.79
9889;BME280;4983;42.112;24.738;2022-07-29T01:23:52;99716.84;;;24.05;90.95
9889;BME280;4983;42.112;24.738;2022-07-29T01:26:33;99718.56;;;24.00;90.35
9889;BME280;4983;42.112;24.738;2022-07-29T01:29:05;99715.63;;;23.77;90.53
9889;BME280;4983;42.112;24.738;2022-07-29T01:31:39;99719.56;;;23.63;92.61
9889;BME280;4983;42.112;24.738;2022-07-29T01:34:11;99717.34;;;23.47;94.00
9889;BME280;4983;42.112;24.738;2022-07-29T01:36:43;99722.31;;;23.07;97.15
9889;BME280;4983;42.112;24.738;2022-07-29T01:39:26;99723.34;;;23.13;95.15
9889;BME280;4983;42.112;24.738;2022-07-29T01:41:59;99715.28;;;23.18;94.12
9889;BME280;4983;42.112;24.738;2022-07-29T01:44:34;99706.66;;;23.32;92.82
9889;BME280;4983;42.112;24.738;2022-07-29T01:47:06;99714.59;;;23.47;92.04
9889;BME280;4983;42.112;24.738;2022-07-29T01:49:41;99711.94;;;23.34;93.70
9889;BME280;4983;42.112;24.738;2022-07-29T01:52:15;99708.91;;;23.17;94.51
9889;BME280;4983;42.112;24.738;2022-07-29T01:54:46;99710.28;;;23.26;93.66
9889;BME280;4983;42.112;24.738;2022-07-29T01:57:18;99712.06;;;23.21;92.69
9889;BME280;4983;42.112;24.738;2022-07-29T01:59:48;99714.91;;;22.64;93.20
9889;BME280;4983;42.112;24.738;2022-07-29T02:02:18;99712.44;;;22.49;93.55
9889;BME280;4983;42.112;24.738;2022-07-29T02:04:46;99717.97;;;22.49;92.91
9889;BME280;4983;42.112;24.738;2022-07-29T02:07:18;99710.06;;;22.59;92.99
9889;BME280;4983;42.112;24.738;2022-07-29T02:09:47;99703.78;;;22.33;93.09
9889;BME280;4983;42.112;24.738;2022-07-29T02:12:19;99705.25;;;22.42;94.22
9889;BME280;4983;42.112;24.738;2022-07-29T02:14:51;99698.94;;;22.28;93.76
9889;BME280;4983;42.112;24.738;2022-07-29T02:17:23;99706.28;;;22.41;93.79
9889;BME280;4983;42.112;24.738;2022-07-29T02:19:52;99700.84;;;22.28;94.87
9889;BME280;4983;42.112;24.738;2022-07-29T02:22:24;99700.44;;;22.24;96.25
9889;BME280;4983;42.112;24.738;2022-07-29T02:24:52;99701.56;;;22.10;97.01
9889;BME280;4983;42.112;24.738;2022-07-29T02:27:21;99699.16;;;22.27;97.48
9889;BME280;4983;42.112;24.738;2022-07-29T02:29:52;99694.97;;;22.11;98.80
9889;BME280;4983;42.112;24.738;2022-07-29T02:32:21;99687.59;;;21.92;100.00
9889;BME280;4983;42.112;24.738;2022-07-29T02:34:48;99687.16;;;22.02;100.00
9889;BME280;4983;42.112;24.738;2022-07-29T02:37:17;99691.06;;;22.32;100.00
9889;BME280;4983;42.112;24.738;2022-07-29T02:39:45;99687.66;;;22.43;99.31
9889;BME280;4983;42.112;24.738;2022-07-29T02:42:16;99689.34;;;22.44;99.05
9889;BME280;4983;42.112;24.738;2022-07-29T02:44:44;99692.28;;;22.42;99.59
9889;BME280;4983;42.112;24.738;2022-07-29T02:47:17;99689.13;;;22.39;100.00
9889;BME280;4983;42.112;24.738;2022-07-29T02:49:51;99697.59;;;22.37;100.00
9889;BME280;4983;42.112;24.738;2022-07-29T02:52:22;99690.47;;;22.23;100.00
9889;BME280;4983;42.112;24.738;2022-07-29T02:54:54;99691.19;;;22.06;100.00
9889;BME280;4983;42.112;24.738;2022-07-29T02:57:29;99693.38;;;22.35;100.00
9889;BME280;4983;42.112;24.738;2022-07-29T02:59:58;99692.09;;;22.44;99.88
9889;BME280;4983;42.112;24.738;2022-07-29T03:02:33;99691.69;;;22.34;100.00
9889;BME280;4983;42.112;24.738;2022-07-29T03:05:02;99688.56;;;22.24;100.00
9889;BME280;4983;42.112;24.738;2022-07-29T03:07:29;99695.06;;;22.49;99.77
9889;BME280;4983;42.112;24.738;2022-07-29T03:09:56;99695.44;;;22.59;99.65
9889;BME280;4983;42.112;24.738;2022-07-29T03:12:25;99694.63;;;22.39;99.98
9889;BME280;4983;42.112;24.738;2022-07-29T03:14:53;99694.22;;;22.35;100.00
9889;BME280;4983;42.112;24.738;2022-07-29T03:17:20;99699.09;;;22.40;99.97
9889;BME280;4983;42.112;24.738;2022-07-29T03:19:49;99700.53;;;22.55;99.46
9889;BME280;4983;42.112;24.738;2022-07-29T03:22:16;99707.16;;;22.35;100.00
9889;BME280;4983;42.112;24.738;2022-07-29T03:24:43;99709.91;;;22.41;100.00
9889;BME280;4983;42.112;24.738;2022-07-29T03:27:10;99702.91;;;22.39;100.00
9889;BME280;4983;42.112;24.738;2022-07-29T03:29:37;99705.78;;;22.13;100.00
9889;BME280;4983;42.112;24.738;2022-07-29T03:32:05;99712.13;;;22.13;100.00
9889;BME280;4983;42.112;24.738;2022-07-29T03:34:32;99720.13;;;22.34;100.00
9889;BME280;4983;42.112;24.738;2022-07-29T03:37:00;99717.22;;;22.16;100.00
9889;BME280;4983;42.112;24.738;2022-07-29T03:39:31;99715.28;;;22.17;100.00
9889;BME280;4983;42.112;24.738;2022-07-29T03:42:00;99719.13;;;22.22;100.00
9889;BME280;4983;42.112;24.738;2022-07-29T03:44:28;99723.81;;;22.09;100.00
9889;BME280;4983;42.112;24.738;2022-07-29T03:46:57;99721.16;;;22.46;99.31
9889;BME280;4983;42.112;24.738;2022-07-29T03:49:27;99722.84;;;22.47;99.76
9889;BME280;4983;42.112;24.738;2022-07-29T03:51:54;99720.28;;;22.59;98.55
9889;BME280;4983;42.112;24.738;2022-07-29T03:54:23;99729.16;;;22.61;98.11
9889;BME280;4983;42.112;24.738;2022-07-29T03:56:51;99726.94;;;22.82;96.67
9889;BME280;4983;42.112;24.738;2022-07-29T03:59:19;99727.38;;;22.79;97.62
9889;BME280;4983;42.112;24.738;2022-07-29T04:01:48;99739.22;;;22.86;97.63
9889;BME280;4983;42.112;24.738;2022-07-29T04:04:15;99726.84;;;22.58;98.93
9889;BME280;4983;42.112;24.738;2022-07-29T04:06:44;99732.44;;;22.38;99.96
9889;BME280;4983;42.112;24.738;2022-07-29T04:09:12;99733.03;;;22.53;99.61
9889;BME280;4983;42.112;24.738;2022-07-29T04:11:41;99737.09;;;22.44;100.00
9889;BME280;4983;42.112;24.738;2022-07-29T04:14:09;99744.38;;;22.06;100.00
9889;BME280;4983;42.112;24.738;2022-07-29T04:16:36;99744.97;;;22.28;100.00
9889;BME280;4983;42.112;24.738;2022-07-29T04:19:03;99741.88;;;21.98;100.00
9889;BME280;4983;42.112;24.738;2022-07-29T04:21:30;99742.69;;;21.99;100.00
9889;BME280;4983;42.112;24.738;2022-07-29T04:23:56;99741.22;;;22.09;100.00
9889;BME280;4983;42.112;24.738;2022-07-29T04:26:23;99743.88;;;22.42;100.00
9889;BME280;4983;42.112;24.738;2022-07-29T04:28:52;99751.09;;;22.43;100.00
9889;BME280;4983;42.112;24.738;2022-07-29T04:31:18;99734.75;;;22.48;100.00
9889;BME280;4983;42.112;24.738;2022-07-29T04:33:45;99744.50;;;22.37;100.00
9889;BME280;4983;42.112;24.738;2022-07-29T04:36:12;99747.03;;;22.52;100.00
9889;BME280;4983;42.112;24.738;2022-07-29T04:38:39;99738.56;;;22.47;100.00
9889;BME280;4983;42.112;24.738;2022-07-29T04:41:06;99737.41;;;22.67;100.00
9889;BME280;4983;42.112;24.738;2022-07-29T04:43:34;99741.47;;;22.65;100.00
9889;BME280;4983;42.112;24.738;2022-07-29T04:46:03;99742.03;;;22.73;100.00
9889;BME280;4983;42.112;24.738;2022-07-29T04:48:32;99745.44;;;22.75;99.59
9889;BME280;4983;42.112;24.738;2022-07-29T04:50:59;99747.03;;;22.96;98.79
9889;BME280;4983;42.112;24.738;2022-07-29T04:53:25;99749.59;;;22.91;98.61
9889;BME280;4983;42.112;24.738;2022-07-29T04:55:52;99751.75;;;22.89;97.33
9889;BME280;4983;42.112;24.738;2022-07-29T04:58:19;99756.31;;;23.01;96.67
9889;BME280;4983;42.112;24.738;2022-07-29T05:00:48;99752.47;;;23.09;96.75
9889;BME280;4983;42.112;24.738;2022-07-29T05:03:16;99754.44;;;23.33;95.54
9889;BME280;4983;42.112;24.738;2022-07-29T05:05:43;99751.72;;;23.26;95.80
9889;BME280;4983;42.112;24.738;2022-07-29T05:08:10;99759.75;;;23.34;94.89
9889;BME280;4983;42.112;24.738;2022-07-29T05:10:37;99753.63;;;23.32;94.22
9889;BME280;4983;42.112;24.738;2022-07-29T05:13:05;99765.47;;;23.39;94.58
9889;BME280;4983;42.112;24.738;2022-07-29T05:15:32;99759.09;;;23.63;93.33
9889;BME280;4983;42.112;24.738;2022-07-29T05:17:59;99766.09;;;23.66;92.80
9889;BME280;4983;42.112;24.738;2022-07-29T05:20:29;99759.56;;;23.85;92.18
9889;BME280;4983;42.112;24.738;2022-07-29T05:22:57;99757.75;;;23.97;91.15
9889;BME280;4983;42.112;24.738;2022-07-29T05:25:24;99758.78;;;24.20;91.11
9889;BME280;4983;42.112;24.738;2022-07-29T05:27:51;99763.69;;;24.00;91.02
9889;BME280;4983;42.112;24.738;2022-07-29T05:30:18;99763.09;;;24.16;91.44
9889;BME280;4983;42.112;24.738;2022-07-29T05:32:45;99763.66;;;24.25;89.97
9889;BME280;4983;42.112;24.738;2022-07-29T05:35:13;99764.63;;;24.30;90.02
9889;BME280;4983;42.112;24.738;2022-07-29T05:37:41;99768.09;;;24.26;90.73
9889;BME280;4983;42.112;24.738;2022-07-29T05:40:09;99764.41;;;24.32;91.53
9889;BME280;4983;42.112;24.738;2022-07-29T05:42:36;99766.72;;;24.35;90.38
9889;BME280;4983;42.112;24.738;2022-07-29T05:45:04;99764.22;;;24.69;89.67
9889;BME280;4983;42.112;24.738;2022-07-29T05:47:31;99775.09;;;24.82;88.95
9889;BME280;4983;42.112;24.738;2022-07-29T05:49:58;99772.50;;;25.17;87.86
9889;BME280;4983;42.112;24.738;2022-07-29T05:52:25;99780.19;;;25.33;85.54
9889;BME280;4983;42.112;24.738;2022-07-29T05:54:53;99779.69;;;25.06;87.42
9889;BME280;4983;42.112;24.738;2022-07-29T05:57:21;99784.13;;;25.25;86.70
9889;BME280;4983;42.112;24.738;2022-07-29T05:59:49;99783.09;;;25.38;86.67
9889;BME280;4983;42.112;24.738;2022-07-29T06:02:16;99787.53;;;25.27;86.42
9889;BME280;4983;42.112;24.738;2022-07-29T06:04:44;99789.44;;;25.27;87.59
9889;BME280;4983;42.112;24.738;2022-07-29T06:07:11;99780.00;;;25.57;85.53
9889;BME280;4983;42.112;24.738;2022-07-29T06:09:37;99786.75;;;25.50;84.94
9889;BME280;4983;42.112;24.738;2022-07-29T06:12:07;99785.09;;;25.72;84.92
9889;BME280;4983;42.112;24.738;2022-07-29T06:14:34;99781.19;;;26.02;84.06
9889;BME280;4983;42.112;24.738;2022-07-29T06:17:01;99785.75;;;26.08;85.06
9889;BME280;4983;42.112;24.738;2022-07-29T06:19:28;99786.75;;;26.14;84.05
9889;BME280;4983;42.112;24.738;2022-07-29T06:21:55;99783.59;;;26.22;82.96
9889;BME280;4983;42.112;24.738;2022-07-29T06:24:23;99783.97;;;25.91;82.96
9889;BME280;4983;42.112;24.738;2022-07-29T06:26:50;99784.28;;;25.83;82.23
9889;BME280;4983;42.112;24.738;2022-07-29T06:29:19;99777.69;;;26.07;81.54
9889;BME280;4983;42.112;24.738;2022-07-29T06:31:46;99774.69;;;26.20;79.81
9889;BME280;4983;42.112;24.738;2022-07-29T06:34:13;99784.31;;;26.63;80.33
9889;BME280;4983;42.112;24.738;2022-07-29T06:36:40;99779.81;;;26.74;78.67
9889;BME280;4983;42.112;24.738;2022-07-29T06:39:08;99787.88;;;26.87;77.86
9889;BME280;4983;42.112;24.738;2022-07-29T06:41:35;99785.94;;;26.87;76.75
9889;BME280;4983;42.112;24.738;2022-07-29T06:44:02;99774.31;;;27.02;76.11
9889;BME280;4983;42.112;24.738;2022-07-29T06:46:31;99775.34;;;27.24;76.40
9889;BME280;4983;42.112;24.738;2022-07-29T06:48:58;99774.25;;;27.25;76.23
9889;BME280;4983;42.112;24.738;2022-07-29T06:51:26;99775.03;;;27.37;76.39
9889;BME280;4983;42.112;24.738;2022-07-29T06:53:55;99770.84;;;27.23;75.70
9889;BME280;4983;42.112;24.738;2022-07-29T06:56:22;99771.59;;;27.46;75.73
9889;BME280;4983;42.112;24.738;2022-07-29T06:58:50;99766.56;;;27.60;76.01
9889;BME280;4983;42.112;24.738;2022-07-29T07:01:17;99770.13;;;27.88;73.63
9889;BME280;4983;42.112;24.738;2022-07-29T07:03:46;99771.22;;;28.04;72.47
9889;BME280;4983;42.112;24.738;2022-07-29T07:06:13;99763.59;;;28.16;71.69
9889;BME280;4983;42.112;24.738;2022-07-29T07:08:40;99764.25;;;28.23;70.15
9889;BME280;4983;42.112;24.738;2022-07-29T07:11:07;99759.97;;;28.32;69.62
9889;BME280;4983;42.112;24.738;2022-07-29T07:13:34;99759.44;;;28.35;71.94
9889;BME280;4983;42.112;24.738;2022-07-29T07:16:01;99761.97;;;28.36;71.45
9889;BME280;4983;42.112;24.738;2022-07-29T07:18:28;99751.34;;;28.50;69.95
9889;BME280;4983;42.112;24.738;2022-07-29T07:20:56;99754.06;;;28.28;70.71
9889;BME280;4983;42.112;24.738;2022-07-29T07:23:23;99756.66;;;28.73;68.06
9889;BME280;4983;42.112;24.738;2022-07-29T07:25:50;99761.19;;;28.79;66.03
9889;BME280;4983;42.112;24.738;2022-07-29T07:28:17;99756.53;;;28.63;64.67
9889;BME280;4983;42.112;24.738;2022-07-29T07:30:44;99752.84;;;29.00;64.94
9889;BME280;4983;42.112;24.738;2022-07-29T07:33:11;99756.03;;;29.09;63.59
9889;BME280;4983;42.112;24.738;2022-07-29T07:35:38;99756.22;;;29.24;62.85
9889;BME280;4983;42.112;24.738;2022-07-29T07:38:06;99753.50;;;29.34;63.17
9889;BME280;4983;42.112;24.738;2022-07-29T07:40:33;99752.53;;;28.97;64.13
9889;BME280;4983;42.112;24.738;2022-07-29T07:43:00;99755.66;;;29.27;62.99
9889;BME280;4983;42.112;24.738;2022-07-29T07:45:28;99746.63;;;29.41;61.68
9889;BME280;4983;42.112;24.738;2022-07-29T07:47:55;99747.06;;;29.86;61.09
9889;BME280;4983;42.112;24.738;2022-07-29T07:50:22;99748.06;;;30.07;60.79
9889;BME280;4983;42.112;24.738;2022-07-29T07:52:50;99740.41;;;30.24;60.40
9889;BME280;4983;42.112;24.738;2022-07-29T07:55:19;99738.78;;;30.33;56.29
9889;BME280;4983;42.112;24.738;2022-07-29T07:57:46;99751.13;;;30.42;53.84
9889;BME280;4983;42.112;24.738;2022-07-29T08:00:15;99750.50;;;30.35;54.77
9889;BME280;4983;42.112;24.738;2022-07-29T08:02:44;99746.19;;;30.64;49.70
9889;BME280;4983;42.112;24.738;2022-07-29T08:05:12;99744.56;;;30.21;49.14
9889;BME280;4983;42.112;24.738;2022-07-29T08:07:44;99745.63;;;30.57;51.43
9889;BME280;4983;42.112;24.738;2022-07-29T08:10:11;99750.25;;;30.88;49.41
9889;BME280;4983;42.112;24.738;2022-07-29T08:12:40;99748.38;;;30.98;49.47
9889;BME280;4983;42.112;24.738;2022-07-29T08:15:08;99741.97;;;31.08;46.92
9889;BME280;4983;42.112;24.738;2022-07-29T08:17:35;99739.78;;;31.20;46.50
9889;BME280;4983;42.112;24.738;2022-07-29T08:20:02;99751.88;;;31.40;48.04
9889;BME280;4983;42.112;24.738;2022-07-29T08:22:29;99743.19;;;31.52;44.79
9889;BME280;4983;42.112;24.738;2022-07-29T08:24:56;99746.00;;;31.52;43.27
9889;BME280;4983;42.112;24.738;2022-07-29T08:27:23;99748.78;;;31.52;44.42
9889;BME280;4983;42.112;24.738;2022-07-29T08:29:53;99745.19;;;31.56;45.75
9889;BME280;4983;42.112;24.738;2022-07-29T08:32:21;99748.25;;;31.65;42.98
9889;BME280;4983;42.112;24.738;2022-07-29T08:34:48;99746.84;;;31.67;46.23
9889;BME280;4983;42.112;24.738;2022-07-29T08:37:15;99739.81;;;31.35;43.69
9889;BME280;4983;42.112;24.738;2022-07-29T08:39:41;99732.59;;;31.74;42.95
9889;BME280;4983;42.112;24.738;2022-07-29T08:42:08;99727.00;;;31.94;43.72
9889;BME280;4983;42.112;24.738;2022-07-29T08:44:36;99736.53;;;31.93;42.42
9889;BME280;4983;42.112;24.738;2022-07-29T08:47:05;99727.56;;;31.86;41.15
9889;BME280;4983;42.112;24.738;2022-07-29T08:49:33;99717.75;;;31.88;40.96
9889;BME280;4983;42.112;24.738;2022-07-29T08:52:01;99713.81;;;31.69;41.43
9889;BME280;4983;42.112;24.738;2022-07-29T08:54:28;99721.13;;;32.05;41.08
9889;BME280;4983;42.112;24.738;2022-07-29T08:56:57;99721.34;;;32.24;41.47
9889;BME280;4983;42.112;24.738;2022-07-29T08:59:26;99707.09;;;32.25;38.86
9889;BME280;4983;42.112;24.738;2022-07-29T09:01:54;99704.00;;;32.32;40.03
9889;BME280;4983;42.112;24.738;2022-07-29T09:04:24;99704.25;;;32.50;39.59
9889;BME280;4983;42.112;24.738;2022-07-29T09:06:54;99701.72;;;32.49;39.83
9889;BME280;4983;42.112;24.738;2022-07-29T09:09:22;99700.47;;;32.75;38.23
9889;BME280;4983;42.112;24.738;2022-07-29T09:11:50;99696.53;;;32.91;37.17
9889;BME280;4983;42.112;24.738;2022-07-29T09:14:18;99690.53;;;33.02;34.54
9889;BME280;4983;42.112;24.738;2022-07-29T09:16:50;99697.75;;;33.18;33.74
9889;BME280;4983;42.112;24.738;2022-07-29T09:19:27;99697.00;;;33.03;35.09
9889;BME280;4983;42.112;24.738;2022-07-29T09:21:55;99689.38;;;33.08;32.96
9889;BME280;4983;42.112;24.738;2022-07-29T09:24:36;99685.53;;;33.48;32.72
9889;BME280;4983;42.112;24.738;2022-07-29T09:27:09;99682.66;;;33.53;30.98
9889;BME280;4983;42.112;24.738;2022-07-29T09:29:36;99683.06;;;33.36;30.18
9889;BME280;4983;42.112;24.738;2022-07-29T09:32:07;99679.69;;;33.39;30.73
9889;BME280;4983;42.112;24.738;2022-07-29T09:34:36;99677.91;;;33.48;30.26
9889;BME280;4983;42.112;24.738;2022-07-29T09:37:04;99682.19;;;33.41;31.02
9889;BME280;4983;42.112;24.738;2022-07-29T09:39:33;99681.22;;;33.55;30.87
9889;BME280;4983;42.112;24.738;2022-07-29T09:42:03;99675.34;;;33.90;30.81
9889;BME280;4983;42.112;24.738;2022-07-29T09:44:42;99680.00;;;34.00;30.00
9889;BME280;4983;42.112;24.738;2022-07-29T09:47:09;99669.72;;;34.19;29.98
9889;BME280;4983;42.112;24.738;2022-07-29T09:49:52;99670.50;;;34.24;29.44
9889;BME280;4983;42.112;24.738;2022-07-29T09:52:20;99679.44;;;34.03;30.12
9889;BME280;4983;42.112;24.738;2022-07-29T09:54:47;99663.09;;;34.05;30.14
9889;BME280;4983;42.112;24.738;2022-07-29T09:57:26;99654.94;;;34.37;29.79
9889;BME280;4983;42.112;24.738;2022-07-29T09:59:58;99662.50;;;34.36;28.35
9889;BME280;4983;42.112;24.738;2022-07-29T10:02:29;99660.56;;;34.37;29.46
9889;BME280;4983;42.112;24.738;2022-07-29T10:04:59;99665.31;;;34.60;28.56
9889;BME280;4983;42.112;24.738;2022-07-29T10:07:27;99652.59;;;34.44;28.28
9889;BME280;4983;42.112;24.738;2022-07-29T10:10:09;99661.53;;;34.46;29.24
9889;BME280;4983;42.112;24.738;2022-07-29T10:12:49;99662.28;;;34.56;28.04
9889;BME280;4983;42.112;24.738;2022-07-29T10:15:16;99660.03;;;34.77;29.35
9889;BME280;4983;42.112;24.738;2022-07-29T10:17:44;99657.88;;;34.92;28.53
9889;BME280;4983;42.112;24.738;2022-07-29T10:20:13;99656.97;;;34.97;28.55
9889;BME280;4983;42.112;24.738;2022-07-29T10:22:40;99655.47;;;35.23;29.80
9889;BME280;4983;42.112;24.738;2022-07-29T10:25:09;99653.69;;;35.08;29.87
9889;BME280;4983;42.112;24.738;2022-07-29T10:27:36;99652.50;;;35.33;27.26
9889;BME280;4983;42.112;24.738;2022-07-29T10:30:05;99648.31;;;35.30;27.25
9889;BME280;4983;42.112;24.738;2022-07-29T10:32:42;99650.84;;;35.32;27.34
9889;BME280;4983;42.112;24.738;2022-07-29T10:35:21;99639.53;;;35.13;26.65
9889;BME280;4983;42.112;24.738;2022-07-29T10:41:12;99640.94;;;35.34;26.60
9889;BME280;4983;42.112;24.738;2022-07-29T10:43:58;99635.09;;;35.31;26.65
9889;BME280;4983;42.112;24.738;2022-07-29T10:46:40;99631.19;;;35.27;26.70
9889;BME280;4983;42.112;24.738;2022-07-29T10:49:18;99618.91;;;35.18;27.30
9889;BME280;4983;42.112;24.738;2022-07-29T10:51:57;99620.81;;;35.41;27.28
9889;BME280;4983;42.112;24.738;2022-07-29T10:54:52;99617.53;;;35.52;28.14
9889;BME280;4983;42.112;24.738;2022-07-29T10:57:22;99614.78;;;35.66;27.18
9889;BME280;4983;42.112;24.738;2022-07-29T11:02:44;99607.38;;;36.02;27.84
9889;BME280;4983;42.112;24.738;2022-07-29T11:05:15;99613.25;;;35.73;27.83
9889;BME280;4983;42.112;24.738;2022-07-29T11:10:52;99591.81;;;36.18;28.66
9889;BME280;4983;42.112;24.738;2022-07-29T11:13:45;99592.03;;;36.35;27.52
9889;BME280;4983;42.112;24.738;2022-07-29T11:16:13;99586.50;;;36.57;26.77
9889;BME280;4983;42.112;24.738;2022-07-29T11:21:45;99588.47;;;35.89;27.32
9889;BME280;4983;42.112;24.738;2022-07-29T11:24:13;99589.06;;;35.54;27.76
9889;BME280;4983;42.112;24.738;2022-07-29T11:26:42;99583.00;;;35.79;28.69
9889;BME280;4983;42.112;24.738;2022-07-29T11:29:19;99586.88;;;35.96;27.03
9889;BME280;4983;42.112;24.738;2022-07-29T11:31:49;99577.50;;;36.01;29.13
9889;BME280;4983;42.112;24.738;2022-07-29T11:34:22;99574.59;;;36.19;27.11
9889;BME280;4983;42.112;24.738;2022-07-29T11:37:18;99570.63;;;36.07;27.39
9889;BME280;4983;42.112;24.738;2022-07-29T11:39:46;99574.09;;;36.17;27.63
9889;BME280;4983;42.112;24.738;2022-07-29T11:42:45;99568.88;;;36.24;26.71
9889;BME280;4983;42.112;24.738;2022-07-29T11:45:20;99560.59;;;36.28;26.97
9889;BME280;4983;42.112;24.738;2022-07-29T11:47:52;99558.09;;;36.40;26.00
9889;BME280;4983;42.112;24.738;2022-07-29T11:50:31;99566.34;;;36.09;26.15
9889;BME280;4983;42.112;24.738;2022-07-29T11:52:58;99554.72;;;36.11;26.18
9889;BME280;4983;42.112;24.738;2022-07-29T11:55:26;99550.31;;;36.59;27.08
9889;BME280;4983;42.112;24.738;2022-07-29T11:57:58;99546.03;;;36.75;25.57
9889;BME280;4983;42.112;24.738;2022-07-29T12:00:28;99546.09;;;36.48;26.92
9889;BME280;4983;42.112;24.738;2022-07-29T12:02:57;99541.25;;;36.75;27.38
9889;BME280;4983;42.112;24.738;2022-07-29T12:05:36;99537.84;;;36.87;28.86
9889;BME280;4983;42.112;24.738;2022-07-29T12:08:11;99540.63;;;37.00;26.93
9889;BME280;4983;42.112;24.738;2022-07-29T12:10:40;99551.06;;;37.00;25.40
9889;BME280;4983;42.112;24.738;2022-07-29T12:13:10;99537.19;;;36.68;27.15
9889;BME280;4983;42.112;24.738;2022-07-29T12:15:37;99537.41;;;36.93;26.62
9889;BME280;4983;42.112;24.738;2022-07-29T12:18:15;99526.44;;;36.92;26.25
9889;BME280;4983;42.112;24.738;2022-07-29T12:20:43;99535.34;;;36.85;25.56
9889;BME280;4983;42.112;24.738;2022-07-29T12:23:11;99532.78;;;36.75;26.00
9889;BME280;4983;42.112;24.738;2022-07-29T12:25:40;99530.91;;;36.93;27.49
9889;BME280;4983;42.112;24.738;2022-07-29T12:28:10;99536.31;;;37.16;25.08
9889;BME280;4983;42.112;24.738;2022-07-29T12:30:40;99524.28;;;37.11;24.63
9889;BME280;4983;42.112;24.738;2022-07-29T12:33:16;99534.25;;;37.30;25.42
9889;BME280;4983;42.112;24.738;2022-07-29T12:35:44;99522.31;;;37.11;24.61
9889;BME280;4983;42.112;24.738;2022-07-29T12:38:12;99527.19;;;37.19;25.29
9889;BME280;4983;42.112;24.738;2022-07-29T12:40:39;99524.78;;;37.35;24.94
9889;BME280;4983;42.112;24.738;2022-07-29T12:43:11;99502.97;;;37.49;24.14
9889;BME280;4983;42.112;24.738;2022-07-29T12:45:39;99512.69;;;37.34;25.37
9889;BME280;4983;42.112;24.738;2022-07-29T12:48:06;99508.34;;;36.93;25.65
9889;BME280;4983;42.112;24.738;2022-07-29T12:50:35;99494.97;;;36.63;25.74
9889;BME280;4983;42.112;24.738;2022-07-29T12:53:11;99495.63;;;37.04;26.06
9889;BME280;4983;42.112;24.738;2022-07-29T12:55:42;99503.50;;;37.07;26.11
9889;BME280;4983;42.112;24.738;2022-07-29T12:58:11;99498.22;;;36.92;25.76
9889;BME280;4983;42.112;24.738;2022-07-29T13:00:39;99492.25;;;36.93;25.94
9889;BME280;4983;42.112;24.738;2022-07-29T13:03:06;99486.97;;;37.00;25.78
9889;BME280;4983;42.112;24.738;2022-07-29T13:05:40;99491.66;;;37.05;25.98
9889;BME280;4983;42.112;24.738;2022-07-29T13:08:11;99484.81;;;37.19;25.69
9889;BME280;4983;42.112;24.738;2022-07-29T13:10:38;99477.00;;;37.16;26.35
9889;BME280;4983;42.112;24.738;2022-07-29T13:13:08;99476.28;;;37.33;25.69
9889;BME280;4983;42.112;24.738;2022-07-29T13:15:37;99473.75;;;37.31;25.61
9889;BME280;4983;42.112;24.738;2022-07-29T13:18:27;99476.13;;;36.94;25.67
9889;BME280;4983;42.112;24.738;2022-07-29T13:20:54;99466.53;;;36.59;26.13
9889;BME280;4983;42.112;24.738;2022-07-29T13:23:21;99467.78;;;36.67;26.58
9889;BME280;4983;42.112;24.738;2022-07-29T13:25:48;99455.47;;;36.27;27.52
9889;BME280;4983;42.112;24.738;2022-07-29T13:28:15;99452.78;;;36.44;27.04
9889;BME280;4983;42.112;24.738;2022-07-29T13:30:44;99463.72;;;36.59;26.58
9889;BME280;4983;42.112;24.738;2022-07-29T13:33:11;99456.63;;;36.48;26.40
9889;BME280;4983;42.112;24.738;2022-07-29T13:35:38;99444.44;;;36.75;26.46